createdAt,value
2023-01-20T05:32:57.226Z,25.67
2023-01-20T05:37:58.849Z,25.20
2023-01-20T05:43:03.567Z,26.80
2023-01-20T05:48:05.984Z,25.67
2023-01-20T05:53:08.744Z,26.20
2023-01-20T05:58:12.175Z,26.03
2023-01-20T06:03:13.857Z,27.07
2023-01-20T06:08:15.559Z,26.53
2023-01-20T06:13:17.325Z,29.13
2023-01-20T06:18:19.861Z,29.80
2023-01-20T06:23:21.459Z,28.20
2023-01-20T06:28:23.295Z,28.53
2023-01-20T06:33:24.947Z,29.13
2023-01-20T06:38:31.324Z,28.03
2023-01-20T06:43:34.447Z,27.30
2023-01-20T06:48:36.431Z,26.63
2023-01-20T06:53:39.081Z,27.00
2023-01-20T06:58:41.297Z,26.07
2023-01-20T07:03:43.793Z,28.37
2023-01-20T07:08:46.213Z,28.17
2023-01-20T07:13:47.810Z,28.67
2023-01-20T07:18:51.042Z,27.80
2023-01-20T07:23:52.718Z,27.53
2023-01-20T07:28:54.636Z,28.30
2023-01-20T07:33:57.821Z,28.47
2023-01-20T07:38:59.528Z,27.77
2023-01-20T07:44:01.142Z,28.33
2023-01-20T07:49:03.827Z,27.93
2023-01-20T07:54:05.841Z,27.83
2023-01-20T07:59:07.976Z,27.90
2023-01-20T08:04:09.742Z,27.77
2023-01-20T08:09:15.146Z,29.83
2023-01-20T08:14:21.949Z,29.70
2023-01-20T08:19:23.691Z,29.13
2023-01-20T08:24:30.779Z,30.20
2023-01-20T08:29:33.726Z,29.40
2023-01-20T08:34:35.484Z,29.97
2023-01-20T08:39:37.815Z,29.77
2023-01-20T08:44:39.533Z,30.00
2023-01-20T08:49:41.566Z,29.73
2023-01-20T08:54:43.392Z,28.87
2023-01-20T08:59:46.883Z,29.03
2023-01-20T09:04:50.150Z,28.57
2023-01-20T09:09:51.911Z,30.23
2023-01-20T09:14:55.883Z,30.67
2023-01-20T09:19:57.651Z,29.90
2023-01-20T09:25:00.429Z,29.73
2023-01-20T09:30:03.007Z,30.50
2023-01-20T09:35:05.444Z,31.63
2023-01-20T09:40:35.120Z,33.67
2023-01-20T09:46:26.208Z,30.73
2023-01-20T09:52:01.403Z,29.37
2023-01-20T09:57:07.398Z,29.80
2023-01-20T10:02:18.187Z,30.53
2023-01-20T10:07:35.106Z,31.73
2023-01-20T10:12:51.442Z,31.67
2023-01-20T10:18:03.606Z,32.40
2023-01-20T10:23:22.006Z,31.80
2023-01-20T10:28:28.746Z,34.00
2023-01-20T10:33:36.487Z,31.57
2023-01-20T10:39:05.472Z,33.23
2023-01-20T10:44:12.855Z,32.77
2023-01-20T10:49:55.257Z,33.37
2023-01-20T10:55:16.258Z,32.43
2023-01-20T11:00:25.064Z,34.23
2023-01-20T11:05:30.172Z,33.43
2023-01-20T11:10:33.610Z,32.43
2023-01-20T11:15:43.405Z,33.60
2023-01-20T11:20:55.557Z,30.77
2023-01-20T11:25:59.707Z,33.17
2023-01-20T11:31:03.260Z,34.53
2023-01-20T11:36:18.932Z,34.87
2023-01-20T11:41:23.510Z,35.83
2023-01-20T11:46:31.669Z,35.20
2023-01-20T11:51:33.490Z,36.40
2023-01-20T11:56:41.621Z,36.10
2023-01-20T12:02:01.871Z,35.63
2023-01-20T12:07:11.050Z,36.20
2023-01-20T12:12:37.235Z,35.80
2023-01-20T12:17:46.165Z,35.37
2023-01-20T12:22:59.023Z,34.83
2023-01-20T12:28:32.998Z,34.83
2023-01-20T12:33:39.005Z,35.63
2023-01-20T12:39:12.655Z,35.60
2023-01-20T12:44:27.717Z,35.70
2023-01-20T12:50:01.095Z,36.53
2023-01-20T12:55:15.298Z,36.40
2023-01-20T13:00:35.862Z,35.97
2023-01-20T13:06:05.331Z,37.57
2023-01-20T13:11:28.539Z,37.23
2023-01-20T13:17:12.805Z,36.00
2023-01-20T13:22:23.227Z,37.17
2023-01-20T13:27:30.076Z,38.27
2023-01-20T13:32:36.264Z,38.70
2023-01-20T13:37:38.786Z,38.83
2023-01-20T13:42:40.551Z,39.17
2023-01-20T13:47:52.088Z,39.67
2023-01-20T13:52:53.780Z,37.07
2023-01-20T13:57:55.430Z,37.53
2023-01-20T14:02:57.216Z,37.97
2023-01-20T14:07:59.967Z,36.87
2023-01-20T14:13:01.752Z,37.73
2023-01-20T14:18:04.687Z,37.40
2023-01-20T14:23:30.031Z,38.43
2023-01-20T14:28:32.770Z,37.27
2023-01-20T14:33:34.559Z,39.20
2023-01-20T14:38:55.803Z,39.10
2023-01-20T14:43:59.241Z,37.53
2023-01-20T14:49:03.422Z,38.90
2023-01-20T14:54:42.899Z,40.10
2023-01-20T14:59:44.978Z,40.90
2023-01-20T15:04:46.808Z,41.23
2023-01-20T15:09:56.169Z,40.87
2023-01-20T15:15:07.088Z,40.33
2023-01-20T15:20:29.121Z,38.73
2023-01-20T15:25:30.796Z,37.83
2023-01-20T15:30:32.573Z,39.30
2023-01-20T15:35:34.274Z,39.80
2023-01-20T15:40:38.349Z,39.23
2023-01-20T15:45:40.204Z,36.67
2023-01-20T15:50:42.526Z,38.70
2023-01-20T15:55:50.111Z,36.87
2023-01-20T16:00:55.512Z,39.83
2023-01-20T16:05:57.243Z,39.90
2023-01-20T16:10:58.916Z,38.20
2023-01-20T16:16:02.086Z,37.77
2023-01-20T16:21:04.853Z,37.53
2023-01-20T16:26:15.320Z,37.63
2023-01-20T16:31:17.282Z,38.57
2023-01-20T16:36:20.890Z,39.43
2023-01-20T16:41:27.916Z,39.03
2023-01-20T16:46:32.786Z,39.50
2023-01-20T16:51:35.639Z,40.00
2023-01-20T16:56:37.422Z,39.30
2023-01-20T17:01:39.137Z,39.03
2023-01-20T17:06:42.462Z,38.97
2023-01-20T17:11:44.273Z,41.53
2023-01-20T17:16:45.971Z,40.80
2023-01-20T17:21:48.029Z,41.33
2023-01-20T17:26:51.816Z,41.03
2023-01-20T17:31:53.445Z,41.00
2023-01-20T17:36:57.194Z,41.63
2023-01-20T17:41:58.892Z,40.87
2023-01-20T17:47:00.490Z,40.20
2023-01-20T17:52:03.092Z,41.83
2023-01-20T17:57:04.756Z,42.77
2023-01-20T18:02:06.928Z,42.67
2023-01-20T18:07:08.938Z,44.77
2023-01-20T18:12:10.603Z,41.87
2023-01-20T18:17:12.294Z,42.10
2023-01-20T18:22:15.243Z,40.90
2023-01-20T18:27:18.834Z,40.33
2023-01-20T18:32:20.546Z,42.30
2023-01-20T18:37:22.484Z,41.37
2023-01-20T18:42:24.115Z,38.70
2023-01-20T18:47:25.972Z,39.97
2023-01-20T18:52:27.697Z,38.63
2023-01-20T18:57:30.507Z,40.70
2023-01-20T19:02:32.323Z,39.77
2023-01-20T19:07:42.954Z,39.50
2023-01-20T19:12:44.708Z,38.47
2023-01-20T19:17:46.515Z,37.23
2023-01-20T19:22:48.375Z,37.23
2023-01-20T19:27:50.510Z,36.40
2023-01-20T19:32:52.908Z,37.63
2023-01-20T19:37:54.765Z,38.33
2023-01-20T19:42:57.095Z,36.70
2023-01-20T19:47:59.019Z,39.40
2023-01-20T19:53:00.910Z,39.00
2023-01-20T19:58:03.035Z,37.13
2023-01-20T20:03:06.506Z,37.03
2023-01-20T20:08:08.430Z,38.03
2023-01-20T20:13:10.385Z,39.07
2023-01-20T20:18:12.912Z,38.23
2023-01-20T20:23:18.258Z,40.57
2023-01-20T20:28:21.635Z,41.53
2023-01-20T20:33:26.109Z,42.13
2023-01-20T20:38:28.057Z,40.97
2023-01-20T20:43:30.079Z,41.13
2023-01-20T20:48:33.756Z,41.63
2023-01-20T20:53:36.697Z,42.57
2023-01-20T20:58:48.692Z,40.80
2023-01-20T21:04:02.567Z,41.27
2023-01-20T21:09:04.331Z,41.97
2023-01-20T21:14:07.324Z,42.17
2023-01-20T21:19:09.195Z,43.23
2023-01-20T21:24:13.947Z,41.53
2023-01-20T21:29:15.554Z,42.40
2023-01-20T21:34:17.210Z,42.93
2023-01-20T21:39:20.614Z,41.80
2023-01-20T21:44:28.560Z,43.70
2023-01-20T21:49:49.352Z,43.60
2023-01-20T21:54:51.250Z,41.80
